Time;durP1;ratioP1;P1;durP2;ratioP2;P2;SDS_P1;SDS_P2;PMS_P1;PMS_P2;Temp;Humidity;BMP_temperature;BMP_pressure;BME280_temperature;BME280_humidity;BME280_pressure;Samples;Min_cycle;Max_cycle;Signal;HPM_P1;HPM_P2
2022/08/12 00:45:02;;;;;;;4.03;2.70;;;16.70;99.90;;;;;;4934341;29;20421;-71
2022/08/12 00:47:29;;;;;;;3.63;3.27;;;16.70;99.90;;;;;;4918628;29;20528;-72
2022/08/12 00:49:55;;;;;;;3.50;3.20;;;16.70;99.90;;;;;;4934627;29;20433;-72
2022/08/12 00:52:22;;;;;;;2.77;2.57;;;16.60;99.90;;;;;;4933733;29;20456;-72
2022/08/12 00:54:58;;;;;;;3.07;2.97;;;16.60;99.90;;;;;;4934016;29;20472;-72
2022/08/12 00:57:34;;;;;;;3.20;2.80;;;16.60;99.90;;;;;;4934602;29;20417;-72
2022/08/12 02:31:42;;;;;;;3.70;3.40;;;15.40;99.90;;;;;;5531422;23;20501;-71
2022/08/12 02:34:08;;;;;;;3.03;2.90;;;15.40;99.90;;;;;;4931810;29;20529;-75
2022/08/12 02:36:38;;;;;;;4.90;3.27;;;15.40;99.90;;;;;;4934026;29;20786;-74
2022/08/12 02:39:07;;;;;;;3.37;3.07;;;15.30;99.90;;;;;;4934784;29;20411;-73
2022/08/12 02:41:35;;;;;;;8.00;4.00;;;15.30;99.90;;;;;;4934662;29;20429;-73
2022/08/12 02:44:07;;;;;;;4.20;3.33;;;15.30;99.90;;;;;;4935617;29;20514;-73
2022/08/12 02:46:35;;;;;;;3.50;3.20;;;15.20;99.90;;;;;;4934834;29;20424;-72
2022/08/12 02:49:10;;;;;;;3.57;3.37;;;15.20;99.90;;;;;;4934711;29;20910;-72
2022/08/12 02:51:41;;;;;;;3.70;3.40;;;15.20;99.90;;;;;;4938041;29;20451;-74
2022/08/12 02:54:07;;;;;;;3.53;3.33;;;15.10;99.90;;;;;;4938055;29;20459;-73
2022/08/12 02:56:39;;;;;;;3.47;3.27;;;15.10;99.90;;;;;;4938239;29;20413;-73
2022/08/12 02:59:06;;;;;;;3.57;3.10;;;15.10;99.90;;;;;;4938262;29;20178;-73
2022/08/12 03:01:33;;;;;;;3.90;3.53;;;15.00;99.90;;;;;;4937113;29;20914;-74
2022/08/12 03:04:01;;;;;;;4.90;3.10;;;15.00;99.90;;;;;;4938286;29;20405;-71
2022/08/12 03:06:38;;;;;;;4.97;3.23;;;15.00;99.90;;;;;;4937918;29;20432;-73
2022/08/12 03:09:05;;;;;;;3.93;3.27;;;15.00;99.90;;;;;;4938260;29;20397;-74
2022/08/12 03:11:55;;;;;;;6.73;3.40;;;15.00;99.90;;;;;;4937857;29;20440;-73
2022/08/12 03:14:26;;;;;;;4.13;3.53;;;14.90;99.90;;;;;;4936431;29;20465;-73
2022/08/12 03:17:14;;;;;;;3.00;2.80;;;14.90;99.90;;;;;;4936864;29;20472;-73
2022/08/12 03:19:42;;;;;;;5.50;3.63;;;14.90;99.90;;;;;;4934962;29;20432;-73
2022/08/12 03:22:13;;;;;;;4.07;3.00;;;14.80;99.90;;;;;;4935525;29;20452;-74
2022/08/12 03:24:41;;;;;;;3.70;3.30;;;14.80;99.90;;;;;;4936604;29;20425;-72
2022/08/12 03:27:09;;;;;;;3.80;3.50;;;14.80;99.90;;;;;;4936559;29;20423;-74
2022/08/12 03:29:36;;;;;;;3.53;3.23;;;14.70;99.90;;;;;;4935861;29;20420;-75
2022/08/12 03:32:03;;;;;;;3.50;3.20;;;14.70;99.90;;;;;;4935022;29;20516;-74
2022/08/12 03:34:34;;;;;;;3.27;3.07;;;14.70;99.90;;;;;;4932988;29;20472;-74
2022/08/12 03:37:01;;;;;;;8.07;3.27;;;14.60;99.90;;;;;;4936377;29;20413;-74
2022/08/12 03:42:37;;;;;;;5.20;3.70;;;14.60;99.90;;;;;;4935193;29;20528;-74
2022/08/12 04:01:55;;;;;;;7.27;4.17;;;14.40;99.90;;;;;;4935474;29;20464;-71
2022/08/12 04:04:25;;;;;;;4.07;3.67;;;14.40;99.90;;;;;;4936130;29;20416;-73
2022/08/12 04:06:51;;;;;;;7.27;4.30;;;14.40;99.90;;;;;;4935558;29;20414;-76
2022/08/12 04:09:19;;;;;;;4.60;3.40;;;14.40;99.90;;;;;;4936016;29;20412;-72
2022/08/12 04:14:31;;;;;;;4.63;3.53;;;14.40;99.90;;;;;;4936402;29;20459;-72
2022/08/12 04:16:57;;;;;;;9.17;3.73;;;14.30;99.90;;;;;;4936176;29;20476;-70
2022/08/12 04:19:23;;;;;;;4.03;3.67;;;14.30;99.90;;;;;;4935238;29;20429;-69
2022/08/12 04:21:49;;;;;;;3.93;3.50;;;14.30;99.90;;;;;;4934356;29;20452;-70
2022/08/12 04:24:17;;;;;;;3.33;2.80;;;14.40;99.90;;;;;;4935151;29;20433;-69
2022/08/12 04:26:42;;;;;;;3.00;2.80;;;14.40;99.90;;;;;;4934756;29;20260;-71
2022/08/12 04:29:09;;;;;;;4.13;3.70;;;14.50;99.90;;;;;;4934868;29;20521;-69
2022/08/12 04:31:38;;;;;;;4.30;3.30;;;14.50;99.90;;;;;;4934157;29;20447;-70
2022/08/12 04:34:05;;;;;;;4.57;4.00;;;14.50;99.90;;;;;;4934678;29;20842;-67
2022/08/12 04:36:30;;;;;;;4.30;3.57;;;14.50;99.90;;;;;;4935309;29;20446;-69
2022/08/12 04:38:58;;;;;;;3.47;3.17;;;14.50;99.90;;;;;;4935293;29;20942;-70
2022/08/12 04:41:26;;;;;;;3.87;3.50;;;14.50;99.90;;;;;;4933798;29;20216;-69
2022/08/12 04:43:53;;;;;;;7.20;4.00;;;14.40;99.90;;;;;;4934229;29;20445;-69
2022/08/12 04:46:19;;;;;;;3.90;3.60;;;14.40;99.90;;;;;;4933749;29;20488;-70
2022/08/12 04:48:45;;;;;;;3.83;3.53;;;14.50;99.90;;;;;;4934528;29;20415;-68
2022/08/12 04:51:12;;;;;;;4.53;3.50;;;14.50;99.90;;;;;;4932646;29;20433;-69
2022/08/12 04:53:40;;;;;;;3.90;3.50;;;14.50;99.90;;;;;;4934554;29;20428;-69
2022/08/12 04:56:06;;;;;;;8.03;3.87;;;14.50;99.90;;;;;;4934259;29;20476;-67
2022/08/12 04:58:33;;;;;;;4.83;3.53;;;14.50;99.90;;;;;;4934372;29;20497;-69
2022/08/12 05:00:59;;;;;;;6.43;3.67;;;14.50;99.90;;;;;;4933633;29;20786;-69
2022/08/12 05:03:26;;;;;;;3.77;3.03;;;14.50;99.90;;;;;;4934014;29;20424;-69
2022/08/12 05:05:51;;;;;;;3.87;3.57;;;14.60;99.90;;;;;;4934213;29;20413;-69
2022/08/12 05:08:17;;;;;;;3.40;3.10;;;14.60;99.90;;;;;;4934384;29;20419;-70
2022/08/12 05:10:45;;;;;;;4.37;3.73;;;14.70;99.90;;;;;;4933446;29;20678;-69
2022/08/12 05:13:15;;;;;;;9.20;4.30;;;14.80;99.90;;;;;;4932949;29;20173;-69
2022/08/12 05:15:44;;;;;;;4.50;3.70;;;14.90;99.90;;;;;;4934135;29;20490;-69
2022/08/12 05:18:10;;;;;;;7.23;3.43;;;15.10;99.90;;;;;;4933908;29;20464;-70
2022/08/12 05:20:36;;;;;;;11.03;3.50;;;15.30;99.90;;;;;;4933307;29;20910;-70
2022/08/12 05:23:09;;;;;;;3.50;3.27;;;15.50;99.90;;;;;;4933369;29;20635;-68
2022/08/12 05:25:35;;;;;;;4.70;3.17;;;15.90;99.90;;;;;;4934125;29;20807;-70
2022/08/12 05:28:02;;;;;;;21.90;4.00;;;16.40;99.90;;;;;;4933863;29;20417;-70
2022/08/12 05:30:32;;;;;;;6.90;4.37;;;16.90;99.90;;;;;;4933354;29;20675;-71
2022/08/12 05:32:58;;;;;;;3.77;3.47;;;17.60;99.90;;;;;;4933618;29;20669;-71
2022/08/12 05:35:24;;;;;;;3.77;3.47;;;18.20;99.90;;;;;;4933028;29;20472;-68
2022/08/12 05:40:35;;;;;;;5.33;3.40;;;19.30;99.90;;;;;;4933088;29;20192;-71
2022/08/12 05:43:00;;;;;;;3.67;3.20;;;19.90;99.90;;;;;;4933017;29;20416;-71
2022/08/12 05:45:26;;;;;;;7.63;3.53;;;20.40;99.90;;;;;;4933525;29;20410;-70
2022/08/12 05:47:51;;;;;;;3.67;3.40;;;21.00;99.90;;;;;;4933669;29;20178;-70
2022/08/12 05:50:17;;;;;;;5.20;3.83;;;21.30;99.90;;;;;;4933355;29;20193;-71
2022/08/12 05:52:43;;;;;;;9.90;4.17;;;21.70;99.90;;;;;;4932586;29;20553;-71
2022/08/12 05:55:09;;;;;;;5.70;3.97;;;21.90;99.90;;;;;;4932922;29;20205;-71
2022/08/12 05:57:34;;;;;;;3.33;3.00;;;22.30;99.90;;;;;;4933989;29;20266;-72
2022/08/12 06:00:00;;;;;;;5.53;3.47;;;22.70;99.90;;;;;;4933986;29;20914;-71
2022/08/12 06:02:25;;;;;;;4.97;3.17;;;23.00;99.90;;;;;;4932442;29;20640;-71
2022/08/12 06:04:52;;;;;;;3.60;3.30;;;23.20;99.90;;;;;;4933695;29;20668;-71
2022/08/12 06:07:18;;;;;;;3.73;3.43;;;23.50;99.90;;;;;;4932935;29;20187;-71
2022/08/12 06:09:43;;;;;;;4.60;3.20;;;23.90;99.90;;;;;;4933173;29;20432;-71
2022/08/12 06:12:09;;;;;;;7.33;3.10;;;24.30;99.90;;;;;;4932130;29;20201;-72
2022/08/12 06:14:35;;;;;;;6.10;3.10;;;24.30;99.90;;;;;;4933239;29;20636;-71
2022/08/12 06:17:01;;;;;;;3.20;2.37;;;24.50;99.90;;;;;;4933125;29;20177;-70
2022/08/12 06:19:30;;;;;;;2.40;2.20;;;24.60;99.90;;;;;;4933223;29;20787;-70
2022/08/12 06:21:56;;;;;;;3.97;2.23;;;24.70;99.90;;;;;;4931702;29;20508;-71
2022/08/12 06:24:23;;;;;;;6.57;3.50;;;24.80;99.90;;;;;;4932978;29;20417;-70
2022/08/12 06:26:49;;;;;;;3.07;2.83;;;24.90;99.90;;;;;;4933016;29;20724;-71
2022/08/12 06:29:18;;;;;;;6.80;2.60;;;25.00;99.90;;;;;;4931195;29;20440;-72
2022/08/12 06:31:50;;;;;;;3.53;2.73;;;25.10;99.90;;;;;;4931804;29;20500;-69
2022/08/12 06:34:17;;;;;;;5.77;2.27;;;25.20;99.90;;;;;;4933147;29;20898;-74
2022/08/12 06:36:44;;;;;;;2.40;2.20;;;25.40;99.90;;;;;;4933788;29;20421;-74
2022/08/12 06:39:11;;;;;;;2.57;2.37;;;25.50;99.90;;;;;;4932427;29;20413;-74
2022/08/12 06:44:22;;;;;;;8.87;2.80;;;25.80;99.90;;;;;;4933837;29;20435;-75
2022/08/12 06:46:47;;;;;;;2.67;2.47;;;26.10;99.90;;;;;;4933848;29;20421;-75
2022/08/12 06:49:13;;;;;;;1.90;1.80;;;26.40;98.90;;;;;;4933887;29;20193;-75
2022/08/12 06:51:39;;;;;;;3.73;2.70;;;26.80;98.40;;;;;;4932842;29;20646;-74
2022/08/12 06:54:05;;;;;;;2.57;2.37;;;27.20;96.90;;;;;;4933221;29;20213;-72
2022/08/12 06:56:30;;;;;;;5.20;2.30;;;27.20;97.10;;;;;;4933769;29;20216;-74
2022/08/12 06:58:56;;;;;;;5.33;2.70;;;27.00;95.80;;;;;;4933985;29;20437;-75
2022/08/12 07:01:23;;;;;;;5.27;2.30;;;27.20;96.50;;;;;;4932730;29;20725;-75
2022/08/12 07:03:50;;;;;;;3.43;3.07;;;27.20;95.10;;;;;;4933873;29;20182;-74
2022/08/12 07:06:17;;;;;;;2.87;2.40;;;27.20;94.50;;;;;;4933549;29;20410;-75
2022/08/12 07:08:42;;;;;;;3.17;2.53;;;26.90;95.20;;;;;;4933705;29;20788;-74
2022/08/12 07:11:12;;;;;;;2.20;2.00;;;27.00;94.70;;;;;;4932253;29;20437;-74
2022/08/12 07:13:43;;;;;;;3.13;2.67;;;27.20;95.00;;;;;;4933832;29;20646;-74
2022/08/12 07:16:14;;;;;;;3.13;2.10;;;27.40;93.60;;;;;;4932057;29;20464;-75
2022/08/12 07:18:41;;;;;;;3.43;2.63;;;27.10;93.90;;;;;;4933545;29;20416;-75
2022/08/12 07:21:07;;;;;;;2.27;2.07;;;27.30;94.20;;;;;;4932275;29;20804;-74
2022/08/12 07:23:35;;;;;;;7.20;2.40;;;27.30;92.90;;;;;;4933592;29;20409;-75
2022/08/12 07:26:03;;;;;;;9.60;2.90;;;27.20;92.70;;;;;;4933144;29;20560;-72
2022/08/12 07:28:32;;;;;;;6.80;2.17;;;27.10;93.00;;;;;;4932843;29;20453;-71
2022/08/12 07:30:58;;;;;;;2.27;2.17;;;27.30;92.60;;;;;;4931672;29;20477;-72
2022/08/12 07:33:27;;;;;;;3.40;2.27;;;27.50;93.20;;;;;;4932860;29;20472;-70
2022/08/12 07:35:54;;;;;;;2.70;2.20;;;27.60;92.70;;;;;;4934336;29;20559;-74
2022/08/12 07:38:32;;;;;;;4.07;2.70;;;27.80;91.90;;;;;;4936376;29;20933;-74
2022/08/12 07:41:17;;;;;;;6.53;2.50;;;27.60;91.60;;;;;;4935259;29;20433;-74
2022/08/12 07:43:46;;;;;;;5.20;2.90;;;27.30;91.30;;;;;;4936077;29;20415;-75
2022/08/12 07:46:18;;;;;;;4.70;2.97;;;27.20;92.00;;;;;;4936628;29;20490;-75
2022/08/12 07:48:47;;;;;;;3.63;2.17;;;27.50;92.00;;;;;;4936623;29;20405;-71
2022/08/12 07:51:13;;;;;;;7.90;2.70;;;27.70;91.30;;;;;;4935596;29;20465;-74
2022/08/12 07:53:39;;;;;;;2.47;2.10;;;27.80;91.80;;;;;;4936213;29;20492;-74
2022/08/12 07:56:08;;;;;;;6.93;2.40;;;27.70;91.80;;;;;;4936380;29;20564;-73
2022/08/12 07:58:38;;;;;;;6.03;2.50;;;27.90;90.70;;;;;;4936754;29;20173;-75
2022/08/12 08:01:11;;;;;;;3.53;2.27;;;27.90;91.10;;;;;;4935675;29;20477;-75
2022/08/12 08:03:37;;;;;;;4.30;2.10;;;27.80;90.50;;;;;;4936201;29;20413;-75
2022/08/12 08:06:04;;;;;;;2.23;2.13;;;28.30;90.70;;;;;;4936472;29;20421;-75
2022/08/12 08:08:29;;;;;;;2.80;1.93;;;28.40;90.10;;;;;;4936134;29;20508;-75
2022/08/12 08:13:43;;;;;;;3.03;2.67;;;29.40;87.90;;;;;;4936612;29;20245;-75
2022/08/12 08:16:09;;;;;;;2.50;2.30;;;29.70;87.80;;;;;;4935830;29;20860;-75
2022/08/12 08:18:36;;;;;;;2.97;2.73;;;29.80;86.90;;;;;;4935720;29;20792;-74
2022/08/12 08:21:02;;;;;;;3.47;2.00;;;29.90;85.90;;;;;;4935366;29;20433;-75
2022/08/12 08:26:21;;;;;;;2.97;2.13;;;30.10;86.10;;;;;;4908759;29;20431;-74
2022/08/12 08:28:46;;;;;;;2.07;1.87;;;30.50;84.20;;;;;;4936046;29;20497;-75
2022/08/12 08:31:13;;;;;;;2.60;1.93;;;30.70;83.40;;;;;;4934995;29;20532;-75
2022/08/12 08:33:40;;;;;;;3.70;2.17;;;30.60;80.40;;;;;;4935815;29;20176;-74
2022/08/12 08:36:06;;;;;;;3.40;2.40;;;30.50;80.30;;;;;;4935122;29;20489;-73
2022/08/12 08:38:32;;;;;;;3.10;1.60;;;30.70;80.50;;;;;;4935519;29;20464;-74
2022/08/12 08:43:41;;;;;;;2.53;1.77;;;30.90;77.70;;;;;;4935418;29;20164;-74
2022/08/12 08:46:07;;;;;;;4.47;1.50;;;30.90;76.90;;;;;;4935336;29;20417;-74
2022/08/12 08:48:33;;;;;;;1.77;1.67;;;31.30;78.60;;;;;;4934023;29;20177;-74
2022/08/12 08:50:59;;;;;;;2.30;2.10;;;31.80;77.30;;;;;;4934014;29;20201;-74
2022/08/12 08:53:25;;;;;;;2.43;1.63;;;32.00;75.30;;;;;;4934103;29;20189;-72
2022/08/12 08:55:52;;;;;;;4.10;1.90;;;32.10;72.70;;;;;;4934895;29;20205;-74
2022/08/12 08:58:20;;;;;;;3.03;1.70;;;31.80;73.00;;;;;;4934651;29;20527;-73
2022/08/12 09:00:48;;;;;;;5.10;1.90;;;31.70;71.90;;;;;;4933421;29;20417;-74
2022/08/12 09:03:14;;;;;;;3.83;1.50;;;31.70;72.10;;;;;;4934125;29;20431;-75
2022/08/12 09:05:39;;;;;;;2.33;1.27;;;31.80;72.80;;;;;;4934555;29;20422;-74
2022/08/12 09:08:05;;;;;;;2.80;1.63;;;32.50;71.40;;;;;;4934518;29;20721;-72
2022/08/12 09:10:32;;;;;;;2.83;1.50;;;32.80;70.20;;;;;;4934677;29;20521;-73
2022/08/12 09:15:44;;;;;;;6.70;1.70;;;33.60;66.70;;;;;;4934518;29;20526;-73
2022/08/12 09:18:10;;;;;;;2.13;1.90;;;33.30;65.80;;;;;;4933926;29;20998;-73
2022/08/12 09:20:37;;;;;;;1.50;1.40;;;33.00;66.10;;;;;;4933939;29;20169;-73
2022/08/12 09:23:07;;;;;;;3.10;1.97;;;32.20;66.60;;;;;;4934248;29;20417;-73
2022/08/12 09:25:34;;;;;;;2.63;1.70;;;32.20;67.30;;;;;;4933041;29;20425;-74
2022/08/12 09:28:00;;;;;;;1.80;1.70;;;32.10;66.50;;;;;;4934056;29;20445;-74
2022/08/12 09:30:29;;;;;;;2.23;2.00;;;31.90;68.30;;;;;;4933840;29;20429;-74
2022/08/12 09:32:55;;;;;;;1.87;1.37;;;32.20;66.40;;;;;;4933483;29;20461;-73
2022/08/12 09:35:23;;;;;;;3.30;2.43;;;32.80;67.20;;;;;;4934111;29;20476;-74
2022/08/12 09:37:54;;;;;;;5.63;2.10;;;33.80;65.80;;;;;;4934071;29;20173;-74
2022/08/12 09:40:22;;;;;;;2.77;1.53;;;33.30;63.60;;;;;;4933930;29;20766;-75
2022/08/12 09:45:33;;;;;;;1.67;1.57;;;32.70;64.10;;;;;;4934290;29;20404;-75
2022/08/12 09:48:02;;;;;;;1.70;1.60;;;32.90;63.80;;;;;;4933696;29;20417;-74
2022/08/12 09:50:28;;;;;;;4.63;1.90;;;33.20;64.30;;;;;;4933749;29;20838;-74
2022/08/12 09:53:10;;;;;;;2.00;1.87;;;33.50;62.90;;;;;;4933199;29;20437;-75
2022/08/12 09:55:40;;;;;;;2.40;1.70;;;33.80;61.60;;;;;;4933819;29;20520;-75
2022/08/12 09:58:06;;;;;;;1.87;1.77;;;32.90;62.20;;;;;;4933538;29;20394;-73
2022/08/12 10:00:33;;;;;;;1.60;1.50;;;32.20;61.80;;;;;;4933296;29;20460;-72
2022/08/12 10:03:09;;;;;;;3.87;1.70;;;32.30;60.40;;;;;;4933774;29;20334;-74
2022/08/12 10:05:38;;;;;;;2.23;1.43;;;32.60;60.50;;;;;;4933399;29;20467;-74
2022/08/12 10:08:09;;;;;;;1.97;1.50;;;32.40;60.30;;;;;;4933733;29;20424;-73
2022/08/12 10:13:40;;;;;;;1.63;1.50;;;32.40;61.30;;;;;;4933034;29;20420;-74
2022/08/12 10:13:43;;;;;;;1.77;1.67;;;32.10;61.00;;;;;;4933103;29;20420;-73
2022/08/12 10:16:10;;;;;;;2.60;1.40;;;32.10;61.20;;;;;;4933531;29;20485;-74
2022/08/12 10:18:37;;;;;;;5.80;1.70;;;32.40;61.20;;;;;;4933718;29;20448;-75
2022/08/12 10:21:08;;;;;;;2.20;1.43;;;32.90;61.00;;;;;;4933031;29;20456;-73
2022/08/12 10:23:34;;;;;;;7.10;1.83;;;32.70;60.30;;;;;;4933966;29;20496;-74
2022/08/12 10:31:28;;;;;;;2.40;1.53;;;32.10;59.60;;;;;;4932228;29;20885;-74
2022/08/12 10:33:53;;;;;;;5.23;1.77;;;31.90;59.50;;;;;;4933534;29;20421;-74
2022/08/12 10:36:19;;;;;;;1.90;1.70;;;31.90;59.70;;;;;;4932822;29;20193;-74
2022/08/12 10:38:46;;;;;;;3.03;1.93;;;31.90;59.50;;;;;;4933344;29;20717;-71
2022/08/12 10:44:14;;;;;;;1.57;1.47;;;31.80;60.50;;;;;;4874470;29;20456;-75
2022/08/12 10:46:41;;;;;;;2.03;1.40;;;31.90;61.00;;;;;;4921282;29;20464;-74
2022/08/12 10:49:06;;;;;;;1.60;1.50;;;32.10;60.00;;;;;;4932615;29;20427;-74
2022/08/12 10:51:32;;;;;;;3.00;1.43;;;32.30;59.30;;;;;;4932590;29;20486;-74
2022/08/12 10:53:58;;;;;;;1.83;1.50;;;32.40;59.90;;;;;;4933374;29;20211;-74
2022/08/12 10:56:24;;;;;;;2.10;1.50;;;32.60;60.00;;;;;;4933065;29;20329;-72
2022/08/12 10:58:50;;;;;;;1.80;1.67;;;32.60;60.10;;;;;;4932776;29;20872;-74
2022/08/12 11:01:17;;;;;;;3.47;1.20;;;32.70;59.50;;;;;;4930916;29;20243;-73
2022/08/12 11:03:43;;;;;;;2.77;1.63;;;32.90;59.20;;;;;;4933130;29;20421;-74
2022/08/12 11:06:10;;;;;;;1.83;1.73;;;33.10;59.80;;;;;;4933072;29;20910;-74
2022/08/12 11:08:39;;;;;;;1.73;1.63;;;33.40;58.70;;;;;;4933336;29;20185;-74
2022/08/12 11:11:09;;;;;;;2.70;1.50;;;33.70;58.20;;;;;;4933774;29;21008;-72
2022/08/12 11:13:35;;;;;;;1.53;1.43;;;33.70;58.20;;;;;;4936348;29;20997;-73
2022/08/12 11:16:03;;;;;;;4.37;1.63;;;33.00;57.70;;;;;;4936681;29;20468;-74
2022/08/12 11:18:29;;;;;;;1.73;1.63;;;32.40;57.50;;;;;;4936527;29;20500;-75
2022/08/12 11:20:55;;;;;;;1.00;1.00;;;32.00;57.70;;;;;;4935813;29;20583;-74
2022/08/12 11:23:21;;;;;;;2.70;1.70;;;31.60;58.00;;;;;;4936080;29;20185;-75
2022/08/12 11:25:50;;;;;;;2.10;1.30;;;31.50;57.90;;;;;;4936559;29;20181;-72
2022/08/12 11:28:16;;;;;;;2.07;1.20;;;31.40;58.40;;;;;;4936327;29;20429;-75
2022/08/12 11:30:43;;;;;;;2.30;1.43;;;30.80;57.70;;;;;;4934986;29;20433;-74
2022/08/12 11:33:09;;;;;;;2.97;1.43;;;31.10;58.30;;;;;;4935971;29;20428;-74
2022/08/12 11:35:42;;;;;;;3.83;1.30;;;31.50;58.70;;;;;;4936419;29;21012;-74
2022/08/12 11:38:08;;;;;;;1.57;1.47;;;31.30;57.50;;;;;;4936300;29;20173;-74
2022/08/12 11:40:34;;;;;;;1.57;1.30;;;31.20;58.30;;;;;;4935480;29;20417;-72
2022/08/12 11:42:59;;;;;;;1.53;1.43;;;31.20;58.30;;;;;;4936083;29;20428;-71
2022/08/12 11:45:26;;;;;;;2.80;1.47;;;31.40;58.10;;;;;;4935930;29;20193;-71
2022/08/12 11:47:53;;;;;;;1.97;1.53;;;30.90;57.10;;;;;;4936032;29;20209;-73
2022/08/12 11:50:19;;;;;;;1.63;1.43;;;30.30;57.10;;;;;;4935540;29;20980;-74
2022/08/12 11:52:46;;;;;;;2.93;1.27;;;30.10;57.10;;;;;;4934927;29;20449;-73
2022/08/12 11:55:12;;;;;;;1.47;1.37;;;30.00;58.00;;;;;;4934674;29;20563;-73
2022/08/12 11:57:52;;;;;;;2.40;1.37;;;30.00;58.30;;;;;;4935629;29;20512;-73
2022/08/12 12:00:19;;;;;;;1.40;1.30;;;29.80;58.40;;;;;;4935606;29;20173;-73
2022/08/12 12:02:45;;;;;;;1.13;1.03;;;30.00;58.00;;;;;;4932772;29;20441;-72
2022/08/12 12:05:11;;;;;;;1.23;1.13;;;30.40;59.30;;;;;;4934136;29;20428;-74
2022/08/12 12:07:38;;;;;;;1.30;0.90;;;30.40;57.80;;;;;;4932990;29;20192;-73
2022/08/12 12:10:04;;;;;;;2.07;1.30;;;30.50;58.20;;;;;;4934274;29;20187;-71
2022/08/12 12:12:30;;;;;;;4.10;1.27;;;30.70;57.30;;;;;;4932585;29;20440;-72
2022/08/12 12:14:57;;;;;;;1.90;1.80;;;30.50;57.20;;;;;;4934183;29;20763;-74
2022/08/12 12:17:24;;;;;;;1.30;1.20;;;30.40;57.90;;;;;;4934915;29;20264;-74
2022/08/12 12:19:50;;;;;;;3.17;1.37;;;30.50;58.00;;;;;;4936122;29;20449;-74
2022/08/12 12:22:15;;;;;;;1.57;1.47;;;30.60;57.40;;;;;;4933997;29;20441;-73
2022/08/12 12:24:46;;;;;;;12.83;1.50;;;30.60;57.30;;;;;;4935382;29;20981;-73
2022/08/12 12:27:12;;;;;;;2.43;1.27;;;29.90;57.90;;;;;;4934744;29;20552;-73
2022/08/12 12:29:37;;;;;;;2.00;1.50;;;29.90;58.60;;;;;;4935187;29;20427;-73
2022/08/12 12:32:03;;;;;;;1.50;1.40;;;29.70;58.90;;;;;;4934199;29;20448;-73
2022/08/12 12:34:29;;;;;;;2.00;1.83;;;29.80;59.40;;;;;;4935096;29;20579;-74
2022/08/12 12:36:54;;;;;;;1.70;1.60;;;30.00;60.00;;;;;;4934855;29;20200;-74
2022/08/12 12:39:20;;;;;;;1.47;1.37;;;30.00;59.00;;;;;;4935031;29;20182;-74
2022/08/12 12:41:45;;;;;;;2.47;1.40;;;30.20;60.30;;;;;;4934033;29;20718;-72
2022/08/12 12:44:11;;;;;;;3.07;1.70;;;30.60;58.80;;;;;;4934511;29;20213;-74
2022/08/12 12:46:36;;;;;;;2.47;1.40;;;30.30;58.40;;;;;;4935010;29;20181;-74
2022/08/12 12:49:02;;;;;;;2.67;1.30;;;30.20;58.80;;;;;;4934387;29;20177;-74
2022/08/12 12:51:27;;;;;;;3.03;1.70;;;30.10;59.10;;;;;;4933814;29;20190;-73
2022/08/12 12:53:54;;;;;;;2.70;1.30;;;30.10;59.50;;;;;;4934881;29;20652;-74
2022/08/12 12:56:21;;;;;;;1.40;1.30;;;30.10;59.60;;;;;;4934560;29;20208;-74
2022/08/12 12:58:50;;;;;;;3.00;1.53;;;30.00;59.40;;;;;;4933995;29;20429;-74
2022/08/12 13:01:24;;;;;;;2.80;1.60;;;29.70;59.30;;;;;;4934038;29;20792;-74
2022/08/12 13:03:52;;;;;;;16.43;1.63;;;29.50;60.00;;;;;;4934718;29;20836;-74
2022/08/12 13:06:24;;;;;;;1.70;1.40;;;29.20;60.70;;;;;;4934039;29;20413;-74
2022/08/12 13:08:52;;;;;;;1.67;1.43;;;29.00;61.10;;;;;;4935183;29;20628;-74
2022/08/12 13:11:20;;;;;;;2.13;1.27;;;29.30;61.90;;;;;;4933679;29;20514;-74
2022/08/12 13:13:48;;;;;;;1.93;1.80;;;29.40;61.10;;;;;;4934650;29;20441;-72
2022/08/12 13:16:20;;;;;;;4.87;1.87;;;29.40;60.80;;;;;;4934608;29;20465;-74
2022/08/12 13:18:47;;;;;;;3.33;1.90;;;29.40;61.10;;;;;;4934173;29;20468;-72
2022/08/12 13:21:16;;;;;;;1.77;1.67;;;29.60;61.00;;;;;;4933177;29;20939;-74
2022/08/12 13:23:46;;;;;;;1.57;1.47;;;29.70;61.10;;;;;;4934537;29;20424;-74
2022/08/12 13:26:12;;;;;;;3.90;1.33;;;29.60;59.70;;;;;;4934585;29;20429;-74
2022/08/12 13:28:44;;;;;;;2.53;1.43;;;29.40;60.10;;;;;;4934319;29;20503;-74
2022/08/12 13:31:10;;;;;;;1.53;1.40;;;29.20;59.60;;;;;;4933662;29;20464;-74
2022/08/12 13:33:36;;;;;;;2.13;1.30;;;29.20;61.10;;;;;;4933926;29;20945;-74
2022/08/12 13:36:03;;;;;;;1.50;1.40;;;29.20;60.80;;;;;;4934488;29;20878;-74
2022/08/12 13:38:37;;;;;;;1.97;1.87;;;29.10;60.20;;;;;;4934557;29;20497;-74
2022/08/12 13:41:04;;;;;;;2.30;1.40;;;29.10;61.70;;;;;;4933336;29;20432;-72
2022/08/12 13:43:31;;;;;;;6.87;1.57;;;29.10;60.90;;;;;;4934337;29;20557;-74
2022/08/12 13:45:57;;;;;;;2.60;1.30;;;29.10;61.00;;;;;;4932611;29;20476;-74
2022/08/12 13:48:23;;;;;;;1.50;1.40;;;28.80;59.80;;;;;;4934156;29;20417;-74
2022/08/12 13:50:48;;;;;;;2.50;1.23;;;28.40;59.40;;;;;;4933362;29;20597;-73
2022/08/12 13:53:16;;;;;;;3.23;1.20;;;28.20;59.40;;;;;;4933448;29;20185;-74
2022/08/12 13:55:47;;;;;;;5.17;1.00;;;28.30;59.90;;;;;;4934133;29;20745;-74
2022/08/12 13:58:15;;;;;;;4.30;1.20;;;28.50;60.00;;;;;;4932926;29;20444;-74
2022/08/12 14:00:44;;;;;;;1.50;1.40;;;28.70;60.10;;;;;;4933364;29;20416;-74
2022/08/12 14:03:12;;;;;;;4.53;1.90;;;28.80;59.70;;;;;;4933737;29;20448;-74
2022/08/12 14:05:38;;;;;;;5.10;1.13;;;29.00;60.00;;;;;;4933880;29;20417;-74
2022/08/12 14:08:05;;;;;;;1.37;1.27;;;29.00;59.60;;;;;;4933625;29;20504;-74
2022/08/12 14:10:36;;;;;;;2.30;1.33;;;28.80;59.60;;;;;;4933678;29;20540;-71
2022/08/12 14:13:13;;;;;;;1.67;0.90;;;28.80;60.10;;;;;;4933849;29;20421;-73
2022/08/12 14:15:41;;;;;;;1.37;1.27;;;28.70;60.10;;;;;;4933805;29;21036;-74
2022/08/12 14:18:17;;;;;;;2.77;1.27;;;28.60;60.20;;;;;;4933045;29;20508;-72
2022/08/12 14:20:47;;;;;;;2.07;1.30;;;28.60;60.40;;;;;;4932562;29;20417;-73
2022/08/12 14:23:13;;;;;;;1.40;1.30;;;28.50;59.70;;;;;;4933084;29;20812;-72
2022/08/12 14:25:39;;;;;;;5.77;1.80;;;28.40;59.70;;;;;;4933595;29;20956;-71
2022/08/12 14:28:15;;;;;;;2.40;1.10;;;28.50;60.90;;;;;;4933759;29;20421;-71
2022/08/12 14:30:44;;;;;;;2.13;1.70;;;28.50;60.90;;;;;;4932527;29;20942;-73
2022/08/12 14:33:10;;;;;;;3.40;1.70;;;28.40;60.60;;;;;;4932538;29;20409;-72
2022/08/12 14:35:36;;;;;;;1.63;1.53;;;28.10;61.20;;;;;;4933128;29;20982;-72
2022/08/12 14:38:21;;;;;;;3.37;1.30;;;28.00;61.00;;;;;;4933350;29;20417;-71
2022/08/12 14:40:49;;;;;;;1.90;1.37;;;27.80;61.80;;;;;;4932416;29;20205;-72
2022/08/12 14:43:15;;;;;;;6.03;1.40;;;27.60;61.40;;;;;;4933020;29;20791;-72
2022/08/12 14:45:41;;;;;;;1.50;1.40;;;27.40;61.70;;;;;;4935619;29;20417;-72
2022/08/12 14:48:07;;;;;;;2.00;1.23;;;27.40;61.70;;;;;;4937006;29;20178;-72
2022/08/12 14:50:33;;;;;;;1.10;1.00;;;27.40;61.70;;;;;;4936210;29;20910;-70
2022/08/12 14:52:58;;;;;;;1.40;1.30;;;27.50;61.60;;;;;;4937092;29;20200;-72
2022/08/12 14:55:32;;;;;;;2.40;1.40;;;27.60;61.50;;;;;;4936729;29;20647;-71
2022/08/12 14:57:58;;;;;;;1.07;1.00;;;27.80;62.00;;;;;;4937693;29;20213;-72
2022/08/12 15:03:12;;;;;;;3.23;1.40;;;28.10;61.40;;;;;;4936892;29;20942;-72
2022/08/12 15:05:38;;;;;;;1.50;1.40;;;28.20;61.60;;;;;;4937125;29;20417;-72
2022/08/12 15:08:13;;;;;;;4.27;1.20;;;28.30;61.50;;;;;;4936656;29;20855;-72
2022/08/12 15:10:43;;;;;;;1.43;1.33;;;28.30;60.40;;;;;;4936362;29;20219;-72
2022/08/12 15:13:10;;;;;;;1.47;1.27;;;28.30;60.90;;;;;;4936998;29;20694;-72
2022/08/12 15:15:38;;;;;;;1.23;1.07;;;28.40;60.50;;;;;;4937179;29;20525;-72
2022/08/12 15:18:24;;;;;;;2.00;1.10;;;28.30;59.80;;;;;;4936656;29;20436;-73
2022/08/12 15:20:54;;;;;;;2.70;1.20;;;28.10;60.10;;;;;;4936075;29;20851;-73
2022/08/12 15:23:22;;;;;;;1.83;1.00;;;27.90;60.40;;;;;;4936406;29;20421;-72
2022/08/12 15:25:50;;;;;;;2.90;1.10;;;27.80;61.00;;;;;;4936739;29;21016;-73
2022/08/12 15:28:19;;;;;;;1.20;0.83;;;27.70;61.00;;;;;;4936691;29;20479;-73
2022/08/12 15:30:44;;;;;;;3.47;1.43;;;27.70;61.40;;;;;;4935442;29;20535;-70
2022/08/12 15:33:10;;;;;;;2.40;1.20;;;27.60;60.80;;;;;;4936290;29;20502;-72
2022/08/12 15:35:37;;;;;;;1.57;1.23;;;27.60;60.90;;;;;;4937035;29;20681;-73
2022/08/12 15:38:06;;;;;;;3.13;1.20;;;27.50;60.90;;;;;;4936576;29;20420;-72
2022/08/12 15:40:32;;;;;;;11.90;1.30;;;27.50;61.00;;;;;;4936309;29;20453;-69
2022/08/12 15:42:59;;;;;;;3.93;1.17;;;27.40;61.00;;;;;;4936425;29;20441;-72
2022/08/12 15:45:25;;;;;;;2.40;1.23;;;27.40;61.90;;;;;;4936566;29;20417;-70
2022/08/12 15:47:51;;;;;;;2.60;1.10;;;27.50;61.00;;;;;;4936385;29;20429;-72
2022/08/12 15:50:22;;;;;;;1.47;1.10;;;27.60;61.30;;;;;;4936105;29;20580;-72
2022/08/12 15:52:48;;;;;;;1.17;1.07;;;27.70;60.40;;;;;;4936444;29;20205;-73
2022/08/12 15:55:14;;;;;;;2.13;1.17;;;27.80;60.50;;;;;;4935984;29;20476;-72
2022/08/12 15:57:45;;;;;;;2.03;1.20;;;27.90;60.80;;;;;;4935777;29;20409;-72